sensor_id;sensor_type;location;lat;lon;timestamp;pressure;altitude;pressure_sealevel;temperature;humidity
70103;BME280;57470;50.034;15.256;2024-03-22T00:01:42;99933.31;;;11.74;80.30
70103;BME280;57470;50.034;15.256;2024-03-22T00:04:08;99933.84;;;11.93;79.65
70103;BME280;57470;50.034;15.256;2024-03-22T00:06:33;99936.31;;;11.55;80.57
70103;BME280;57470;50.034;15.256;2024-03-22T00:08:58;99945.66;;;11.62;79.79
70103;BME280;57470;50.034;15.256;2024-03-22T00:11:24;99946.00;;;11.70;79.45
70103;BME280;57470;50.034;15.256;2024-03-22T00:13:49;99946.19;;;11.40;80.60
70103;BME280;57470;50.034;15.256;2024-03-22T00:16:14;99935.88;;;11.48;80.16
70103;BME280;57470;50.034;15.256;2024-03-22T00:18:40;99943.56;;;11.26;80.97
70103;BME280;57470;50.034;15.256;2024-03-22T00:21:05;99940.75;;;11.27;80.63
70103;BME280;57470;50.034;15.256;2024-03-22T00:23:31;99947.97;;;11.40;80.14
70103;BME280;57470;50.034;15.256;2024-03-22T00:25:56;99938.59;;;11.20;80.63
70103;BME280;57470;50.034;15.256;2024-03-22T00:28:21;99930.19;;;11.40;80.09
70103;BME280;57470;50.034;15.256;2024-03-22T00:30:47;99931.75;;;11.30;80.22
70103;BME280;57470;50.034;15.256;2024-03-22T00:33:12;99933.63;;;11.28;80.10
70103;BME280;57470;50.034;15.256;2024-03-22T00:35:38;99936.69;;;11.36;80.22
70103;BME280;57470;50.034;15.256;2024-03-22T00:38:03;99936.03;;;11.18;80.54
70103;BME280;57470;50.034;15.256;2024-03-22T00:40:29;99938.69;;;11.33;79.78
70103;BME280;57470;50.034;15.256;2024-03-22T00:42:54;99927.31;;;11.16;80.31
70103;BME280;57470;50.034;15.256;2024-03-22T00:45:19;99930.69;;;11.33;80.27
70103;BME280;57470;50.034;15.256;2024-03-22T00:47:45;99917.78;;;11.26;80.15
70103;BME280;57470;50.034;15.256;2024-03-22T00:50:10;99917.91;;;11.52;79.60
70103;BME280;57470;50.034;15.256;2024-03-22T00:52:36;99920.16;;;11.58;78.74
70103;BME280;57470;50.034;15.256;2024-03-22T00:55:01;99915.38;;;11.36;79.75
70103;BME280;57470;50.034;15.256;2024-03-22T00:57:26;99911.63;;;11.53;79.01
70103;BME280;57470;50.034;15.256;2024-03-22T00:59:52;99910.78;;;11.38;79.35
70103;BME280;57470;50.034;15.256;2024-03-22T01:02:17;99908.03;;;11.40;79.15
70103;BME280;57470;50.034;15.256;2024-03-22T01:04:42;99905.41;;;11.25;79.55
70103;BME280;57470;50.034;15.256;2024-03-22T01:07:08;99908.44;;;11.19;80.10
70103;BME280;57470;50.034;15.256;2024-03-22T01:09:33;99905.56;;;11.37;79.28
70103;BME280;57470;50.034;15.256;2024-03-22T01:11:58;99912.72;;;11.63;78.41
70103;BME280;57470;50.034;15.256;2024-03-22T01:14:24;99896.25;;;11.44;78.48
70103;BME280;57470;50.034;15.256;2024-03-22T01:16:49;99902.25;;;11.33;78.92
70103;BME280;57470;50.034;15.256;2024-03-22T01:19:15;99897.94;;;11.18;79.68
70103;BME280;57470;50.034;15.256;2024-03-22T01:21:40;99898.38;;;11.24;78.67
70103;BME280;57470;50.034;15.256;2024-03-22T01:24:05;99900.00;;;11.27;78.93
70103;BME280;57470;50.034;15.256;2024-03-22T01:26:31;99904.47;;;11.26;78.37
70103;BME280;57470;50.034;15.256;2024-03-22T01:28:56;99911.66;;;11.39;79.14
70103;BME280;57470;50.034;15.256;2024-03-22T01:31:21;99909.16;;;11.50;78.00
70103;BME280;57470;50.034;15.256;2024-03-22T01:33:47;99899.44;;;11.49;78.12
70103;BME280;57470;50.034;15.256;2024-03-22T01:36:12;99909.81;;;11.53;77.80
70103;BME280;57470;50.034;15.256;2024-03-22T01:38:38;99910.41;;;11.71;77.24
70103;BME280;57470;50.034;15.256;2024-03-22T01:41:03;99911.88;;;11.36;77.98
70103;BME280;57470;50.034;15.256;2024-03-22T01:43:28;99911.66;;;11.39;78.39
70103;BME280;57470;50.034;15.256;2024-03-22T01:45:54;99911.53;;;11.13;78.79
70103;BME280;57470;50.034;15.256;2024-03-22T01:48:19;99920.00;;;11.06;79.61
70103;BME280;57470;50.034;15.256;2024-03-22T01:50:45;99910.53;;;11.28;78.61
70103;BME280;57470;50.034;15.256;2024-03-22T01:53:11;99915.31;;;11.50;78.48
70103;BME280;57470;50.034;15.256;2024-03-22T01:55:37;99907.09;;;11.41;78.53
70103;BME280;57470;50.034;15.256;2024-03-22T01:58:02;99897.34;;;11.13;80.08
70103;BME280;57470;50.034;15.256;2024-03-22T02:00:29;99898.34;;;10.98;82.03
70103;BME280;57470;50.034;15.256;2024-03-22T02:02:55;99896.63;;;11.38;80.97
70103;BME280;57470;50.034;15.256;2024-03-22T02:05:21;99893.19;;;11.09;82.43
70103;BME280;57470;50.034;15.256;2024-03-22T02:07:48;99897.66;;;11.08;82.88
70103;BME280;57470;50.034;15.256;2024-03-22T02:10:15;99892.69;;;11.02;83.07
70103;BME280;57470;50.034;15.256;2024-03-22T02:12:42;99890.16;;;10.86;83.89
70103;BME280;57470;50.034;15.256;2024-03-22T02:15:09;99885.69;;;10.87;83.70
70103;BME280;57470;50.034;15.256;2024-03-22T02:17:37;99883.06;;;10.59;84.54
70103;BME280;57470;50.034;15.256;2024-03-22T02:20:04;99879.63;;;10.99;83.56
70103;BME280;57470;50.034;15.256;2024-03-22T02:22:31;99882.00;;;10.89;83.08
70103;BME280;57470;50.034;15.256;2024-03-22T02:24:58;99879.63;;;10.99;82.55
70103;BME280;57470;50.034;15.256;2024-03-22T02:27:25;99876.72;;;11.02;83.16
70103;BME280;57470;50.034;15.256;2024-03-22T02:29:52;99866.16;;;11.15;82.53
70103;BME280;57470;50.034;15.256;2024-03-22T02:32:19;99866.00;;;11.04;82.44
70103;BME280;57470;50.034;15.256;2024-03-22T02:34:46;99865.53;;;10.97;82.07
70103;BME280;57470;50.034;15.256;2024-03-22T02:37:13;99865.63;;;10.96;82.22
70103;BME280;57470;50.034;15.256;2024-03-22T02:39:40;99867.31;;;11.11;81.88
70103;BME280;57470;50.034;15.256;2024-03-22T02:42:07;99849.78;;;10.80;81.91
70103;BME280;57470;50.034;15.256;2024-03-22T02:44:34;99854.16;;;11.22;81.04
70103;BME280;57470;50.034;15.256;2024-03-22T02:47:04;99852.16;;;11.25;80.73
70103;BME280;57470;50.034;15.256;2024-03-22T02:49:31;99836.47;;;11.21;80.68
70103;BME280;57470;50.034;15.256;2024-03-22T02:51:57;99838.78;;;11.40;79.92
70103;BME280;57470;50.034;15.256;2024-03-22T02:54:25;99832.25;;;11.31;80.07
70103;BME280;57470;50.034;15.256;2024-03-22T02:56:52;99830.38;;;11.46;79.42
70103;BME280;57470;50.034;15.256;2024-03-22T02:59:18;99825.72;;;11.22;79.20
70103;BME280;57470;50.034;15.256;2024-03-22T03:01:45;99823.22;;;11.07;79.22
70103;BME280;57470;50.034;15.256;2024-03-22T03:04:12;99824.06;;;11.07;80.36
70103;BME280;57470;50.034;15.256;2024-03-22T03:06:38;99820.00;;;11.28;79.50
70103;BME280;57470;50.034;15.256;2024-03-22T03:09:05;99823.91;;;11.50;78.65
70103;BME280;57470;50.034;15.256;2024-03-22T03:11:34;99811.03;;;11.29;78.92
70103;BME280;57470;50.034;15.256;2024-03-22T03:14:00;99806.56;;;11.17;79.66
70103;BME280;57470;50.034;15.256;2024-03-22T03:16:25;99812.13;;;11.00;80.07
70103;BME280;57470;50.034;15.256;2024-03-22T03:18:51;99816.47;;;11.01;79.98
70103;BME280;57470;50.034;15.256;2024-03-22T03:21:16;99813.25;;;10.96;79.89
70103;BME280;57470;50.034;15.256;2024-03-22T03:23:41;99816.22;;;11.18;79.63
70103;BME280;57470;50.034;15.256;2024-03-22T03:26:07;99810.41;;;11.26;79.32
70103;BME280;57470;50.034;15.256;2024-03-22T03:28:32;99815.50;;;11.16;79.39
70103;BME280;57470;50.034;15.256;2024-03-22T03:30:57;99805.03;;;11.13;79.56
70103;BME280;57470;50.034;15.256;2024-03-22T03:33:23;99803.66;;;11.20;79.46
70103;BME280;57470;50.034;15.256;2024-03-22T03:35:48;99793.72;;;11.10;79.89
70103;BME280;57470;50.034;15.256;2024-03-22T03:38:14;99794.44;;;11.26;79.25
70103;BME280;57470;50.034;15.256;2024-03-22T03:40:40;99791.25;;;11.34;78.94
70103;BME280;57470;50.034;15.256;2024-03-22T03:43:05;99793.06;;;11.33;79.17
70103;BME280;57470;50.034;15.256;2024-03-22T03:45:31;99788.00;;;11.43;78.77
70103;BME280;57470;50.034;15.256;2024-03-22T03:47:56;99792.56;;;11.41;78.65
70103;BME280;57470;50.034;15.256;2024-03-22T03:50:21;99790.84;;;11.40;79.13
70103;BME280;57470;50.034;15.256;2024-03-22T03:52:47;99790.66;;;11.43;78.80
70103;BME280;57470;50.034;15.256;2024-03-22T03:55:12;99788.94;;;11.42;79.30
70103;BME280;57470;50.034;15.256;2024-03-22T03:57:38;99783.72;;;11.40;79.11
70103;BME280;57470;50.034;15.256;2024-03-22T04:00:03;99796.84;;;11.43;79.25
70103;BME280;57470;50.034;15.256;2024-03-22T04:02:30;99784.47;;;11.42;79.09
70103;BME280;57470;50.034;15.256;2024-03-22T04:04:55;99778.28;;;11.42;79.14
70103;BME280;57470;50.034;15.256;2024-03-22T04:07:21;99781.16;;;11.39;79.25
70103;BME280;57470;50.034;15.256;2024-03-22T04:09:46;99780.75;;;11.45;79.16
70103;BME280;57470;50.034;15.256;2024-03-22T04:12:12;99775.72;;;11.40;79.38
70103;BME280;57470;50.034;15.256;2024-03-22T04:14:37;99781.56;;;11.45;78.54
70103;BME280;57470;50.034;15.256;2024-03-22T04:17:03;99782.25;;;11.49;79.19
70103;BME280;57470;50.034;15.256;2024-03-22T04:19:28;99771.78;;;11.46;79.23
70103;BME280;57470;50.034;15.256;2024-03-22T04:21:53;99766.88;;;11.40;79.49
70103;BME280;57470;50.034;15.256;2024-03-22T04:24:19;99762.50;;;11.39;79.11
70103;BME280;57470;50.034;15.256;2024-03-22T04:26:44;99758.56;;;11.32;79.61
70103;BME280;57470;50.034;15.256;2024-03-22T04:29:09;99759.31;;;11.34;79.85
70103;BME280;57470;50.034;15.256;2024-03-22T04:31:35;99760.41;;;11.44;79.04
70103;BME280;57470;50.034;15.256;2024-03-22T04:34:00;99766.97;;;11.38;78.96
70103;BME280;57470;50.034;15.256;2024-03-22T04:36:26;99768.25;;;11.45;79.41
70103;BME280;57470;50.034;15.256;2024-03-22T04:38:51;99762.25;;;11.29;80.04
70103;BME280;57470;50.034;15.256;2024-03-22T04:41:16;99760.03;;;11.23;80.06
70103;BME280;57470;50.034;15.256;2024-03-22T04:43:42;99766.19;;;11.23;80.52
70103;BME280;57470;50.034;15.256;2024-03-22T04:46:08;99756.34;;;11.11;80.68
70103;BME280;57470;50.034;15.256;2024-03-22T04:48:33;99760.44;;;11.17;79.98
70103;BME280;57470;50.034;15.256;2024-03-22T04:50:58;99759.59;;;11.16;80.37
70103;BME280;57470;50.034;15.256;2024-03-22T04:53:24;99758.63;;;11.17;80.20
70103;BME280;57470;50.034;15.256;2024-03-22T04:55:50;99754.78;;;11.21;80.55
70103;BME280;57470;50.034;15.256;2024-03-22T04:58:17;99757.66;;;11.18;80.67
70103;BME280;57470;50.034;15.256;2024-03-22T05:00:43;99757.81;;;11.03;81.34
70103;BME280;57470;50.034;15.256;2024-03-22T05:03:09;99762.28;;;11.02;81.36
70103;BME280;57470;50.034;15.256;2024-03-22T05:05:36;99768.94;;;11.09;80.86
70103;BME280;57470;50.034;15.256;2024-03-22T05:08:01;99760.69;;;11.00;81.00
70103;BME280;57470;50.034;15.256;2024-03-22T05:10:27;99775.94;;;11.10;81.20
70103;BME280;57470;50.034;15.256;2024-03-22T05:12:54;99779.06;;;11.17;80.91
70103;BME280;57470;50.034;15.256;2024-03-22T05:15:20;99778.16;;;11.04;81.58
70103;BME280;57470;50.034;15.256;2024-03-22T05:17:45;99771.22;;;11.01;81.38
70103;BME280;57470;50.034;15.256;2024-03-22T05:20:11;99771.44;;;10.98;81.64
70103;BME280;57470;50.034;15.256;2024-03-22T05:22:39;99773.28;;;11.10;80.70
70103;BME280;57470;50.034;15.256;2024-03-22T05:25:05;99763.81;;;11.06;81.24
70103;BME280;57470;50.034;15.256;2024-03-22T05:27:31;99768.63;;;11.14;80.65
70103;BME280;57470;50.034;15.256;2024-03-22T05:29:58;99765.09;;;11.13;81.06
70103;BME280;57470;50.034;15.256;2024-03-22T05:32:24;99757.16;;;11.26;80.57
70103;BME280;57470;50.034;15.256;2024-03-22T05:34:49;99761.66;;;11.38;80.48
70103;BME280;57470;50.034;15.256;2024-03-22T05:37:15;99758.03;;;11.26;80.83
70103;BME280;57470;50.034;15.256;2024-03-22T05:39:40;99769.13;;;11.06;81.79
70103;BME280;57470;50.034;15.256;2024-03-22T05:42:06;99768.53;;;11.15;81.38
70103;BME280;57470;50.034;15.256;2024-03-22T05:44:32;99770.81;;;11.34;80.62
70103;BME280;57470;50.034;15.256;2024-03-22T05:46:57;99763.34;;;11.39;80.65
70103;BME280;57470;50.034;15.256;2024-03-22T05:49:22;99763.59;;;11.49;80.07
70103;BME280;57470;50.034;15.256;2024-03-22T05:51:48;99760.19;;;11.47;80.26
70103;BME280;57470;50.034;15.256;2024-03-22T05:54:14;99761.06;;;11.60;79.54
70103;BME280;57470;50.034;15.256;2024-03-22T05:56:39;99767.78;;;11.53;79.43
70103;BME280;57470;50.034;15.256;2024-03-22T05:59:04;99762.13;;;11.45;80.86
70103;BME280;57470;50.034;15.256;2024-03-22T06:01:30;99765.09;;;11.53;80.13
70103;BME280;57470;50.034;15.256;2024-03-22T06:03:55;99763.06;;;11.56;80.13
70103;BME280;57470;50.034;15.256;2024-03-22T06:06:21;99756.34;;;11.51;80.36
70103;BME280;57470;50.034;15.256;2024-03-22T06:08:50;99765.53;;;11.59;80.29
70103;BME280;57470;50.034;15.256;2024-03-22T06:11:18;99754.84;;;11.34;80.24
70103;BME280;57470;50.034;15.256;2024-03-22T06:13:43;99757.19;;;11.39;80.97
70103;BME280;57470;50.034;15.256;2024-03-22T06:16:09;99754.03;;;11.19;81.26
70103;BME280;57470;50.034;15.256;2024-03-22T06:18:34;99763.22;;;11.28;81.11
70103;BME280;57470;50.034;15.256;2024-03-22T06:21:00;99765.41;;;11.09;81.94
70103;BME280;57470;50.034;15.256;2024-03-22T06:23:25;99771.34;;;11.26;81.74
70103;BME280;57470;50.034;15.256;2024-03-22T06:25:54;99761.53;;;11.27;81.04
70103;BME280;57470;50.034;15.256;2024-03-22T06:28:19;99771.59;;;11.49;81.04
70103;BME280;57470;50.034;15.256;2024-03-22T06:30:45;99772.72;;;11.32;81.23
70103;BME280;57470;50.034;15.256;2024-03-22T06:33:10;99763.91;;;11.44;81.07
70103;BME280;57470;50.034;15.256;2024-03-22T06:35:36;99771.94;;;11.70;80.93
70103;BME280;57470;50.034;15.256;2024-03-22T06:38:01;99771.25;;;11.80;80.88
70103;BME280;57470;50.034;15.256;2024-03-22T06:40:28;99772.63;;;11.86;80.41
70103;BME280;57470;50.034;15.256;2024-03-22T06:42:53;99771.13;;;11.94;79.98
70103;BME280;57470;50.034;15.256;2024-03-22T06:45:19;99762.41;;;12.05;79.60
70103;BME280;57470;50.034;15.256;2024-03-22T06:47:44;99760.50;;;12.07;79.57
70103;BME280;57470;50.034;15.256;2024-03-22T06:50:11;99763.03;;;12.09;79.37
70103;BME280;57470;50.034;15.256;2024-03-22T06:52:36;99754.31;;;12.07;79.37
70103;BME280;57470;50.034;15.256;2024-03-22T06:55:02;99756.63;;;12.11;79.04
70103;BME280;57470;50.034;15.256;2024-03-22T06:57:28;99744.16;;;12.24;79.64
70103;BME280;57470;50.034;15.256;2024-03-22T06:59:54;99735.91;;;11.64;82.03
70103;BME280;57470;50.034;15.256;2024-03-22T07:02:19;99735.97;;;11.89;82.14
70103;BME280;57470;50.034;15.256;2024-03-22T07:04:45;99735.84;;;12.16;80.86
70103;BME280;57470;50.034;15.256;2024-03-22T07:07:11;99734.16;;;11.38;83.19
70103;BME280;57470;50.034;15.256;2024-03-22T07:09:36;99743.13;;;11.89;81.93
70103;BME280;57470;50.034;15.256;2024-03-22T07:12:02;99739.53;;;11.50;82.92
70103;BME280;57470;50.034;15.256;2024-03-22T07:14:27;99739.88;;;11.71;82.40
70103;BME280;57470;50.034;15.256;2024-03-22T07:16:53;99753.31;;;12.33;80.67
70103;BME280;57470;50.034;15.256;2024-03-22T07:19:21;99750.53;;;12.71;79.69
70103;BME280;57470;50.034;15.256;2024-03-22T07:21:48;99745.03;;;13.22;78.61
70103;BME280;57470;50.034;15.256;2024-03-22T07:24:13;99753.22;;;13.42;77.37
70103;BME280;57470;50.034;15.256;2024-03-22T07:26:39;99737.06;;;12.72;78.65
70103;BME280;57470;50.034;15.256;2024-03-22T07:29:04;99751.03;;;13.12;77.13
70103;BME280;57470;50.034;15.256;2024-03-22T07:31:30;99747.13;;;13.29;76.63
70103;BME280;57470;50.034;15.256;2024-03-22T07:33:55;99745.09;;;13.90;75.31
70103;BME280;57470;50.034;15.256;2024-03-22T07:36:21;99749.31;;;13.35;77.11
70103;BME280;57470;50.034;15.256;2024-03-22T07:38:46;99752.66;;;14.30;75.10
70103;BME280;57470;50.034;15.256;2024-03-22T07:41:11;99751.69;;;14.42;73.30
70103;BME280;57470;50.034;15.256;2024-03-22T07:43:37;99742.47;;;14.46;72.46
70103;BME280;57470;50.034;15.256;2024-03-22T07:46:02;99745.22;;;14.33;73.13
70103;BME280;57470;50.034;15.256;2024-03-22T07:48:29;99743.34;;;13.78;75.78
70103;BME280;57470;50.034;15.256;2024-03-22T07:50:58;99745.19;;;13.31;75.52
70103;BME280;57470;50.034;15.256;2024-03-22T07:53:24;99751.41;;;14.00;75.82
70103;BME280;57470;50.034;15.256;2024-03-22T07:55:50;99742.41;;;14.79;73.01
70103;BME280;57470;50.034;15.256;2024-03-22T07:58:15;99740.25;;;15.05;72.42
70103;BME280;57470;50.034;15.256;2024-03-22T08:00:40;99733.25;;;15.25;70.08
70103;BME280;57470;50.034;15.256;2024-03-22T08:03:06;99722.13;;;15.09;69.91
70103;BME280;57470;50.034;15.256;2024-03-22T08:05:32;99744.47;;;15.51;68.49
70103;BME280;57470;50.034;15.256;2024-03-22T08:07:57;99722.97;;;14.66;71.81
70103;BME280;57470;50.034;15.256;2024-03-22T08:10:22;99721.72;;;14.70;71.52
70103;BME280;57470;50.034;15.256;2024-03-22T08:12:48;99728.13;;;15.22;69.09
70103;BME280;57470;50.034;15.256;2024-03-22T08:15:14;99707.78;;;14.22;71.25
70103;BME280;57470;50.034;15.256;2024-03-22T08:17:40;99707.75;;;14.33;70.35
70103;BME280;57470;50.034;15.256;2024-03-22T08:20:06;99708.38;;;14.59;72.12
70103;BME280;57470;50.034;15.256;2024-03-22T08:22:31;99706.72;;;15.43;67.45
70103;BME280;57470;50.034;15.256;2024-03-22T08:24:57;99705.59;;;15.56;65.21
70103;BME280;57470;50.034;15.256;2024-03-22T08:27:22;99710.94;;;15.77;65.95
70103;BME280;57470;50.034;15.256;2024-03-22T08:29:48;99710.28;;;15.85;64.82
70103;BME280;57470;50.034;15.256;2024-03-22T08:32:13;99691.91;;;15.38;67.32
70103;BME280;57470;50.034;15.256;2024-03-22T08:34:38;99701.13;;;14.93;69.30
70103;BME280;57470;50.034;15.256;2024-03-22T08:37:04;99691.72;;;14.33;71.27
70103;BME280;57470;50.034;15.256;2024-03-22T08:39:30;99692.06;;;14.51;69.20
70103;BME280;57470;50.034;15.256;2024-03-22T08:41:55;99695.63;;;14.18;70.23
70103;BME280;57470;50.034;15.256;2024-03-22T08:44:21;99685.16;;;14.48;70.37
70103;BME280;57470;50.034;15.256;2024-03-22T08:46:47;99686.59;;;15.48;66.04
70103;BME280;57470;50.034;15.256;2024-03-22T08:49:12;99678.13;;;14.79;69.12
70103;BME280;57470;50.034;15.256;2024-03-22T08:51:38;99686.94;;;15.75;65.65
70103;BME280;57470;50.034;15.256;2024-03-22T08:54:03;99684.25;;;16.36;64.13
70103;BME280;57470;50.034;15.256;2024-03-22T08:56:29;99677.72;;;16.29;61.81
70103;BME280;57470;50.034;15.256;2024-03-22T08:58:54;99669.00;;;16.37;62.59
70103;BME280;57470;50.034;15.256;2024-03-22T09:01:21;99663.63;;;16.37;60.37
70103;BME280;57470;50.034;15.256;2024-03-22T09:03:47;99661.97;;;16.55;61.43
70103;BME280;57470;50.034;15.256;2024-03-22T09:06:16;99642.56;;;16.32;61.86
70103;BME280;57470;50.034;15.256;2024-03-22T09:08:41;99656.06;;;16.21;60.77
70103;BME280;57470;50.034;15.256;2024-03-22T09:11:07;99646.41;;;16.59;59.25
70103;BME280;57470;50.034;15.256;2024-03-22T09:13:32;99646.50;;;16.97;59.25
70103;BME280;57470;50.034;15.256;2024-03-22T09:16:00;99627.81;;;14.94;63.56
70103;BME280;57470;50.034;15.256;2024-03-22T09:18:26;99643.25;;;15.94;59.20
70103;BME280;57470;50.034;15.256;2024-03-22T09:20:52;99642.31;;;16.05;57.74
70103;BME280;57470;50.034;15.256;2024-03-22T09:23:18;99635.63;;;16.39;58.35
70103;BME280;57470;50.034;15.256;2024-03-22T09:25:45;99626.84;;;16.18;56.75
70103;BME280;57470;50.034;15.256;2024-03-22T09:28:11;99622.34;;;16.28;57.03
70103;BME280;57470;50.034;15.256;2024-03-22T09:30:42;99619.47;;;16.70;56.99
70103;BME280;57470;50.034;15.256;2024-03-22T09:33:08;99625.84;;;16.88;56.58
70103;BME280;57470;50.034;15.256;2024-03-22T09:35:34;99622.31;;;16.78;55.73
70103;BME280;57470;50.034;15.256;2024-03-22T09:37:59;99621.00;;;17.20;55.14
70103;BME280;57470;50.034;15.256;2024-03-22T09:40:25;99618.19;;;16.93;56.31
70103;BME280;57470;50.034;15.256;2024-03-22T09:42:52;99617.06;;;16.86;56.44
70103;BME280;57470;50.034;15.256;2024-03-22T09:45:18;99616.09;;;16.87;57.42
70103;BME280;57470;50.034;15.256;2024-03-22T09:47:46;99622.22;;;17.45;55.77
70103;BME280;57470;50.034;15.256;2024-03-22T09:50:13;99607.16;;;17.06;55.66
70103;BME280;57470;50.034;15.256;2024-03-22T09:52:41;99609.03;;;17.98;54.63
70103;BME280;57470;50.034;15.256;2024-03-22T09:55:07;99603.63;;;16.96;57.00
70103;BME280;57470;50.034;15.256;2024-03-22T09:57:35;99600.69;;;17.55;55.25
70103;BME280;57470;50.034;15.256;2024-03-22T10:00:02;99595.75;;;17.60;54.78
70103;BME280;57470;50.034;15.256;2024-03-22T10:02:28;99594.63;;;17.53;55.76
70103;BME280;57470;50.034;15.256;2024-03-22T10:04:56;99586.22;;;17.09;56.17
70103;BME280;57470;50.034;15.256;2024-03-22T10:07:22;99578.25;;;16.21;57.00
70103;BME280;57470;50.034;15.256;2024-03-22T10:09:47;99597.47;;;17.98;52.84
70103;BME280;57470;50.034;15.256;2024-03-22T10:12:13;99584.53;;;18.02;52.23
70103;BME280;57470;50.034;15.256;2024-03-22T10:14:38;99588.16;;;18.55;52.18
70103;BME280;57470;50.034;15.256;2024-03-22T10:17:05;99575.66;;;17.91;54.32
70103;BME280;57470;50.034;15.256;2024-03-22T10:19:30;99576.69;;;18.53;52.44
70103;BME280;57470;50.034;15.256;2024-03-22T10:22:00;99572.13;;;18.36;52.41
70103;BME280;57470;50.034;15.256;2024-03-22T10:24:25;99568.72;;;18.79;52.70
70103;BME280;57470;50.034;15.256;2024-03-22T10:26:51;99575.34;;;19.02;52.91
70103;BME280;57470;50.034;15.256;2024-03-22T10:29:17;99557.34;;;18.05;56.28
70103;BME280;57470;50.034;15.256;2024-03-22T10:31:45;99550.19;;;18.13;55.21
70103;BME280;57470;50.034;15.256;2024-03-22T10:34:11;99547.72;;;18.20;55.31
70103;BME280;57470;50.034;15.256;2024-03-22T10:36:38;99539.72;;;17.46;56.35
70103;BME280;57470;50.034;15.256;2024-03-22T10:39:05;99542.78;;;17.60;55.74
70103;BME280;57470;50.034;15.256;2024-03-22T10:41:31;99555.31;;;19.05;53.63
70103;BME280;57470;50.034;15.256;2024-03-22T10:43:57;99550.16;;;18.94;52.55
70103;BME280;57470;50.034;15.256;2024-03-22T10:46:29;99530.00;;;17.99;56.25
70103;BME280;57470;50.034;15.256;2024-03-22T10:48:55;99543.63;;;17.71;56.75
70103;BME280;57470;50.034;15.256;2024-03-22T10:51:20;99543.06;;;18.22;54.91
70103;BME280;57470;50.034;15.256;2024-03-22T10:53:47;99536.50;;;18.69;55.20
70103;BME280;57470;50.034;15.256;2024-03-22T10:56:16;99526.31;;;17.73;55.79
70103;BME280;57470;50.034;15.256;2024-03-22T10:58:42;99530.06;;;17.90;56.24
70103;BME280;57470;50.034;15.256;2024-03-22T11:01:21;99521.03;;;17.81;57.37
70103;BME280;57470;50.034;15.256;2024-03-22T11:03:47;99516.69;;;16.77;59.65
70103;BME280;57470;50.034;15.256;2024-03-22T11:06:12;99512.13;;;18.26;58.54
70103;BME280;57470;50.034;15.256;2024-03-22T11:08:38;99505.50;;;18.38;57.88
70103;BME280;57470;50.034;15.256;2024-03-22T11:11:10;99496.06;;;17.61;59.48
70103;BME280;57470;50.034;15.256;2024-03-22T11:13:36;99505.69;;;17.91;60.31
70103;BME280;57470;50.034;15.256;2024-03-22T11:16:02;99495.06;;;17.35;60.87
70103;BME280;57470;50.034;15.256;2024-03-22T11:18:27;99496.06;;;18.52;58.90
70103;BME280;57470;50.034;15.256;2024-03-22T11:20:53;99496.28;;;18.41;56.79
70103;BME280;57470;50.034;15.256;2024-03-22T11:23:19;99485.78;;;18.91;56.42
70103;BME280;57470;50.034;15.256;2024-03-22T11:25:45;99484.44;;;19.46;55.45
70103;BME280;57470;50.034;15.256;2024-03-22T11:28:11;99475.41;;;19.56;54.19
70103;BME280;57470;50.034;15.256;2024-03-22T11:30:37;99472.28;;;19.76;54.27
70103;BME280;57470;50.034;15.256;2024-03-22T11:33:04;99470.66;;;18.98;52.92
70103;BME280;57470;50.034;15.256;2024-03-22T11:35:30;99457.50;;;18.51;53.17
70103;BME280;57470;50.034;15.256;2024-03-22T11:37:56;99462.47;;;18.82;53.76
70103;BME280;57470;50.034;15.256;2024-03-22T11:40:25;99457.41;;;19.38;53.40
70103;BME280;57470;50.034;15.256;2024-03-22T11:42:52;99451.94;;;19.22;52.78
70103;BME280;57470;50.034;15.256;2024-03-22T11:45:19;99443.69;;;18.98;53.64
70103;BME280;57470;50.034;15.256;2024-03-22T11:47:48;99435.50;;;18.82;52.67
70103;BME280;57470;50.034;15.256;2024-03-22T11:50:14;99437.97;;;19.27;54.08
70103;BME280;57470;50.034;15.256;2024-03-22T11:52:44;99435.78;;;19.22;53.65
70103;BME280;57470;50.034;15.256;2024-03-22T11:55:12;99432.72;;;19.25;53.05
70103;BME280;57470;50.034;15.256;2024-03-22T11:57:38;99424.41;;;19.10;52.65
70103;BME280;57470;50.034;15.256;2024-03-22T12:00:04;99429.88;;;18.93;52.64
70103;BME280;57470;50.034;15.256;2024-03-22T12:02:35;99418.88;;;18.86;53.40
70103;BME280;57470;50.034;15.256;2024-03-22T12:05:01;99417.00;;;19.46;52.63
70103;BME280;57470;50.034;15.256;2024-03-22T12:07:26;99421.03;;;19.93;52.53
70103;BME280;57470;50.034;15.256;2024-03-22T12:09:52;99405.41;;;19.54;51.36
70103;BME280;57470;50.034;15.256;2024-03-22T12:12:17;99416.97;;;19.89;52.05
70103;BME280;57470;50.034;15.256;2024-03-22T12:14:46;99409.25;;;20.10;51.71
70103;BME280;57470;50.034;15.256;2024-03-22T12:17:11;99407.38;;;19.94;51.70
70103;BME280;57470;50.034;15.256;2024-03-22T12:19:37;99398.41;;;19.85;50.74
70103;BME280;57470;50.034;15.256;2024-03-22T12:22:02;99400.97;;;20.03;51.16
70103;BME280;57470;50.034;15.256;2024-03-22T12:24:28;99391.50;;;19.83;51.54
70103;BME280;57470;50.034;15.256;2024-03-22T12:26:53;99376.00;;;19.43;49.96
70103;BME280;57470;50.034;15.256;2024-03-22T12:29:19;99367.06;;;19.42;51.95
70103;BME280;57470;50.034;15.256;2024-03-22T12:31:46;99369.00;;;19.50;50.75
70103;BME280;57470;50.034;15.256;2024-03-22T12:34:12;99357.59;;;19.30;50.57
70103;BME280;57470;50.034;15.256;2024-03-22T12:36:37;99363.13;;;18.87;51.12
70103;BME280;57470;50.034;15.256;2024-03-22T12:39:03;99363.56;;;19.08;51.22
70103;BME280;57470;50.034;15.256;2024-03-22T12:41:29;99368.09;;;19.41;49.49
70103;BME280;57470;50.034;15.256;2024-03-22T12:43:55;99352.88;;;19.32;50.66